»·PEaware :: N660WC KTVL-KFAT

N660WC :: KTVL-KFAT

FLIGHT INFORMATION

Flight Status: Arrived
Operator: Privately registered:
United States
More flights under this callsign
Pilot: John H. (7647)
Aircraft: CESSNA T210 TURBO CENTURION
(T210)
More flights by this aircraft type
Origin: KTVL Lake Tahoe
United States
Destination: KFAT Fresno Yosemite Intl
United States
More flights between these airports :: More routes between these airports
Route: MARRI DARBI V165 COGOL FRA
File this flight plan on PilotEdge
Remarks:
Altitude:
(Current/Filed)
11,500ft
Speed:
(Current/Filed)
170kts
Departed: 19-Aug-18 06:24 AM
Arrived: 19-Aug-18 07:42 AM
Distance/Time
Traveled:
128nm/1:18
Distance/Time
To Go:
Arrived

Flight Plot

Page will automatically refresh every two minutes.

Flight plan parsing failed; only flown route is shown


Map Options




Map Legend


Flown Route
Filed Route
Departure Airport
Arrival Airport
Navaid (VOR, NDB)
Fix

Horizontal Profiles

Position Reports

Time Latitude Longitude Heading Altitude Ground
Speed
19-Aug-18 06:18 38.889605 -119.998884 102 6268ft 0kts
19-Aug-18 06:19 38.889604 -119.998882 102 6268ft 0kts
19-Aug-18 06:20 38.889604 -119.998881 102 6268ft 0kts
19-Aug-18 06:21 38.889604 -119.998881 102 6268ft 0kts
19-Aug-18 06:22 38.889280 -119.997700 170 6266ft 7kts
19-Aug-18 06:23 38.885338 -119.998834 194 6266ft 23kts
19-Aug-18 06:24 38.883099 -119.998469 14 6265ft 0kts
19-Aug-18 06:25 38.886955 -119.997330 16 6264ft 76kts
19-Aug-18 06:26 38.913370 -119.993964 16 6799ft 99kts
19-Aug-18 06:27 38.938424 -119.998780 337 7531ft 97kts
19-Aug-18 06:28 38.963116 -120.010871 340 8327ft 94kts
19-Aug-18 06:29 38.987380 -120.020913 343 9118ft 90kts
19-Aug-18 06:30 39.011041 -120.024193 339 9704ft 105kts
19-Aug-18 06:31 39.022979 -120.007939 137 10501ft 91kts
19-Aug-18 06:32 39.002328 -119.991172 150 11170ft 88kts
19-Aug-18 06:33 38.980325 -119.974834 147 11454ft 106kts
19-Aug-18 06:34 38.954639 -119.954898 147 11448ft 122kts
19-Aug-18 06:35 38.923633 -119.930617 148 11440ft 149kts
19-Aug-18 06:36 38.889741 -119.904474 149 11436ft 157kts
19-Aug-18 06:37 38.854433 -119.877335 149 11435ft 159kts
19-Aug-18 06:38 38.825821 -119.839375 123 11436ft 161kts
19-Aug-18 06:39 38.803756 -119.791234 120 11435ft 162kts
19-Aug-18 06:40 38.781618 -119.741422 120 11433ft 163kts
19-Aug-18 06:41 38.754328 -119.702747 174 11445ft 161kts
19-Aug-18 06:42 38.712302 -119.703441 182 11500ft 162kts
19-Aug-18 06:43 38.669162 -119.706347 182 11500ft 165kts
19-Aug-18 06:44 38.624788 -119.709426 181 11496ft 170kts
19-Aug-18 06:45 38.580040 -119.712419 182 11596ft 166kts
19-Aug-18 06:46 38.538357 -119.715240 182 11607ft 172kts
19-Aug-18 06:47 38.498619 -119.717964 183 11607ft 173kts
19-Aug-18 06:48 38.458950 -119.720608 182 11608ft 174kts
19-Aug-18 06:49 38.419512 -119.723179 181 11608ft 174kts
19-Aug-18 06:50 38.380628 -119.725758 182 11607ft 174kts
19-Aug-18 06:51 38.342165 -119.728425 182 11607ft 175kts
19-Aug-18 06:52 38.303571 -119.730998 182 11607ft 174kts
19-Aug-18 06:53 38.264756 -119.733282 182 11606ft 174kts
19-Aug-18 06:54 38.226016 -119.735700 182 11606ft 174kts
19-Aug-18 06:55 38.186499 -119.738204 182 11608ft 174kts
19-Aug-18 06:56 38.147122 -119.740436 182 11608ft 174kts
19-Aug-18 06:57 38.106522 -119.742727 182 11608ft 174kts
19-Aug-18 06:58 38.065247 -119.745335 182 11607ft 174kts
19-Aug-18 06:59 38.023544 -119.747817 182 11606ft 174kts
19-Aug-18 07:00 37.980849 -119.750408 182 11606ft 174kts
19-Aug-18 07:01 37.937200 -119.752974 182 11607ft 174kts
19-Aug-18 07:02 37.893072 -119.755611 182 11605ft 173kts
19-Aug-18 07:03 37.856669 -119.757769 182 11607ft 173kts
19-Aug-18 07:04 37.814367 -119.760284 182 11607ft 174kts
19-Aug-18 07:05 37.769795 -119.762941 182 11607ft 174kts
19-Aug-18 07:06 37.724879 -119.765613 182 11608ft 174kts
19-Aug-18 07:07 37.678871 -119.768346 182 11607ft 174kts
19-Aug-18 07:08 37.632732 -119.771003 182 11609ft 174kts
19-Aug-18 07:09 37.587010 -119.773780 182 11524ft 177kts
19-Aug-18 07:10 37.539729 -119.776541 182 11525ft 174kts
19-Aug-18 07:11 37.494407 -119.779206 182 11525ft 174kts
19-Aug-18 07:12 37.465098 -119.781020 180 11519ft 172kts
19-Aug-18 07:13 37.419819 -119.783608 182 11524ft 171kts
19-Aug-18 07:14 37.372696 -119.786295 185 11127ft 181kts
19-Aug-18 07:15 37.324113 -119.789294 182 10160ft 168kts
19-Aug-18 07:16 37.281416 -119.786339 143 9183ft 154kts
19-Aug-18 07:17 37.249913 -119.753476 137 9450ft 139kts
19-Aug-18 07:18 37.220077 -119.721005 138 9507ft 155kts
19-Aug-18 07:19 37.188688 -119.686855 138 9502ft 160kts
19-Aug-18 07:20 37.156729 -119.652103 138 9311ft 167kts
19-Aug-18 07:21 37.124646 -119.617243 138 8697ft 172kts
19-Aug-18 07:22 37.087681 -119.586921 158 8041ft 172kts
19-Aug-18 07:23 37.045300 -119.566384 158 7365ft 170kts
19-Aug-18 07:24 37.003478 -119.545919 158 6693ft 168kts
19-Aug-18 07:25 36.960702 -119.525006 158 5998ft 166kts
19-Aug-18 07:26 36.918245 -119.504246 158 5479ft 171kts
19-Aug-18 07:27 36.878638 -119.484928 158 5475ft 165kts
19-Aug-18 07:28 36.837759 -119.465014 158 5475ft 164kts
19-Aug-18 07:29 36.795846 -119.444593 157 5476ft 164kts
19-Aug-18 07:30 36.754861 -119.424645 157 4952ft 152kts
19-Aug-18 07:31 36.715135 -119.405352 157 4260ft 159kts
19-Aug-18 07:32 36.673561 -119.385219 158 3567ft 161kts
19-Aug-18 07:33 36.631815 -119.370728 205 3469ft 159kts
19-Aug-18 07:34 36.624899 -119.421475 273 3267ft 160kts
19-Aug-18 07:35 36.638532 -119.473068 300 2564ft 159kts
19-Aug-18 07:36 36.662068 -119.516805 307 1889ft 158kts
19-Aug-18 07:37 36.684837 -119.557054 304 1743ft 117kts
19-Aug-18 07:38 36.702390 -119.587955 304 1776ft 110kts
19-Aug-18 07:39 36.720281 -119.619074 305 1849ft 103kts
19-Aug-18 07:40 36.737305 -119.648644 305 1440ft 108kts
19-Aug-18 07:41 36.752007 -119.674250 304 950ft 82kts
19-Aug-18 07:42 36.764655 -119.696310 303 554ft 75kts
19-Aug-18 07:43 36.771327 -119.709784 245 332ft 9kts
19-Aug-18 07:44 36.772058 -119.715937 259 330ft 21kts

Navigation Log

Ident Type
Flight plan parsing failed, navigation log unavailable